sensor_id;sensor_type;location;lat;lon;timestamp;temperature;humidity
13944;DHT22;7044;53.286;8.534;2023-12-04T00:01:05;0.00;99.90
13944;DHT22;7044;53.286;8.534;2023-12-04T00:03:32;0.10;99.90
13944;DHT22;7044;53.286;8.534;2023-12-04T00:05:59;0.10;99.90
13944;DHT22;7044;53.286;8.534;2023-12-04T00:08:26;0.10;99.90
13944;DHT22;7044;53.286;8.534;2023-12-04T00:10:53;0.20;99.90
13944;DHT22;7044;53.286;8.534;2023-12-04T00:13:20;0.10;99.90
13944;DHT22;7044;53.286;8.534;2023-12-04T00:15:47;0.20;99.90
13944;DHT22;7044;53.286;8.534;2023-12-04T00:18:15;0.20;99.90
13944;DHT22;7044;53.286;8.534;2023-12-04T00:20:42;0.00;99.90
13944;DHT22;7044;53.286;8.534;2023-12-04T00:23:09;0.20;99.90
13944;DHT22;7044;53.286;8.534;2023-12-04T00:25:36;0.10;99.90
13944;DHT22;7044;53.286;8.534;2023-12-04T00:28:03;0.20;99.90
13944;DHT22;7044;53.286;8.534;2023-12-04T00:30:29;0.20;99.90
13944;DHT22;7044;53.286;8.534;2023-12-04T00:32:56;0.10;99.90
13944;DHT22;7044;53.286;8.534;2023-12-04T00:35:25;0.10;99.90
13944;DHT22;7044;53.286;8.534;2023-12-04T00:37:51;0.20;99.90
13944;DHT22;7044;53.286;8.534;2023-12-04T00:45:13;0.10;99.90
13944;DHT22;7044;53.286;8.534;2023-12-04T00:47:39;0.10;99.90
13944;DHT22;7044;53.286;8.534;2023-12-04T00:50:07;0.20;99.90
13944;DHT22;7044;53.286;8.534;2023-12-04T00:52:35;0.10;99.90
13944;DHT22;7044;53.286;8.534;2023-12-04T00:55:02;0.20;99.90
13944;DHT22;7044;53.286;8.534;2023-12-04T00:57:29;0.10;99.90
13944;DHT22;7044;53.286;8.534;2023-12-04T00:59:56;-0.90;99.90
13944;DHT22;7044;53.286;8.534;2023-12-04T01:02:23;1.20;99.90
13944;DHT22;7044;53.286;8.534;2023-12-04T01:04:50;0.10;99.90
13944;DHT22;7044;53.286;8.534;2023-12-04T01:07:17;0.10;99.90
13944;DHT22;7044;53.286;8.534;2023-12-04T01:09:46;0.10;99.90
13944;DHT22;7044;53.286;8.534;2023-12-04T01:12:13;0.10;99.90
13944;DHT22;7044;53.286;8.534;2023-12-04T01:14:39;0.20;99.90
13944;DHT22;7044;53.286;8.534;2023-12-04T01:17:06;0.10;99.90
13944;DHT22;7044;53.286;8.534;2023-12-04T01:19:33;0.10;99.90
13944;DHT22;7044;53.286;8.534;2023-12-04T01:22:00;0.60;99.90
13944;DHT22;7044;53.286;8.534;2023-12-04T01:24:27;0.20;99.90
13944;DHT22;7044;53.286;8.534;2023-12-04T01:26:55;0.10;99.90
13944;DHT22;7044;53.286;8.534;2023-12-04T01:29:22;0.10;99.90
13944;DHT22;7044;53.286;8.534;2023-12-04T01:31:49;0.20;99.90
13944;DHT22;7044;53.286;8.534;2023-12-04T01:34:16;0.20;99.90
13944;DHT22;7044;53.286;8.534;2023-12-04T01:36:43;0.40;99.90
13944;DHT22;7044;53.286;8.534;2023-12-04T01:39:10;0.20;99.90
13944;DHT22;7044;53.286;8.534;2023-12-04T01:41:36;0.20;99.90
13944;DHT22;7044;53.286;8.534;2023-12-04T01:44:05;-0.70;99.90
13944;DHT22;7044;53.286;8.534;2023-12-04T01:46:32;0.20;99.90
13944;DHT22;7044;53.286;8.534;2023-12-04T01:48:59;0.20;99.90
13944;DHT22;7044;53.286;8.534;2023-12-04T01:51:28;0.10;99.90
13944;DHT22;7044;53.286;8.534;2023-12-04T01:53:56;0.20;99.90
13944;DHT22;7044;53.286;8.534;2023-12-04T01:56:24;0.20;99.90
13944;DHT22;7044;53.286;8.534;2023-12-04T01:58:52;1.50;99.90
13944;DHT22;7044;53.286;8.534;2023-12-04T02:01:21;0.20;99.90
13944;DHT22;7044;53.286;8.534;2023-12-04T02:06:16;0.20;99.90
13944;DHT22;7044;53.286;8.534;2023-12-04T02:08:46;0.20;99.90
13944;DHT22;7044;53.286;8.534;2023-12-04T02:11:13;0.10;99.90
13944;DHT22;7044;53.286;8.534;2023-12-04T02:13:40;0.20;99.90
13944;DHT22;7044;53.286;8.534;2023-12-04T02:16:10;0.20;99.90
13944;DHT22;7044;53.286;8.534;2023-12-04T02:18:38;0.20;99.90
13944;DHT22;7044;53.286;8.534;2023-12-04T02:21:06;0.20;99.90
13944;DHT22;7044;53.286;8.534;2023-12-04T02:23:33;0.20;99.90
13944;DHT22;7044;53.286;8.534;2023-12-04T02:26:09;0.80;99.90
13944;DHT22;7044;53.286;8.534;2023-12-04T02:28:37;0.20;99.90
13944;DHT22;7044;53.286;8.534;2023-12-04T02:31:05;0.90;99.90
13944;DHT22;7044;53.286;8.534;2023-12-04T02:33:34;0.20;99.90
13944;DHT22;7044;53.286;8.534;2023-12-04T02:36:04;0.30;99.90
13944;DHT22;7044;53.286;8.534;2023-12-04T02:38:32;0.20;99.90
13944;DHT22;7044;53.286;8.534;2023-12-04T02:41:00;0.00;99.90
13944;DHT22;7044;53.286;8.534;2023-12-04T02:43:27;0.20;99.90
13944;DHT22;7044;53.286;8.534;2023-12-04T02:48:21;0.20;99.90
13944;DHT22;7044;53.286;8.534;2023-12-04T02:50:48;0.30;99.90
13944;DHT22;7044;53.286;8.534;2023-12-04T02:53:15;0.30;99.90
13944;DHT22;7044;53.286;8.534;2023-12-04T02:55:41;0.40;99.90
13944;DHT22;7044;53.286;8.534;2023-12-04T02:58:10;0.30;99.90
13944;DHT22;7044;53.286;8.534;2023-12-04T03:00:36;0.30;99.90
13944;DHT22;7044;53.286;8.534;2023-12-04T03:03:03;0.20;99.90
13944;DHT22;7044;53.286;8.534;2023-12-04T03:05:30;0.30;99.90
13944;DHT22;7044;53.286;8.534;2023-12-04T03:07:57;0.30;99.90
13944;DHT22;7044;53.286;8.534;2023-12-04T03:12:51;0.30;99.90
13944;DHT22;7044;53.286;8.534;2023-12-04T03:15:19;0.30;99.90
13944;DHT22;7044;53.286;8.534;2023-12-04T03:17:47;0.20;99.90
13944;DHT22;7044;53.286;8.534;2023-12-04T03:20:14;0.30;99.90
13944;DHT22;7044;53.286;8.534;2023-12-04T03:22:41;-0.20;99.90
13944;DHT22;7044;53.286;8.534;2023-12-04T03:25:08;0.20;99.90
13944;DHT22;7044;53.286;8.534;2023-12-04T03:27:35;0.80;99.90
13944;DHT22;7044;53.286;8.534;2023-12-04T03:30:02;0.30;99.90
13944;DHT22;7044;53.286;8.534;2023-12-04T03:32:31;0.30;99.90
13944;DHT22;7044;53.286;8.534;2023-12-04T03:34:58;0.30;99.90
13944;DHT22;7044;53.286;8.534;2023-12-04T03:37:24;0.20;99.90
13944;DHT22;7044;53.286;8.534;2023-12-04T03:39:51;0.30;99.90
13944;DHT22;7044;53.286;8.534;2023-12-04T03:42:18;0.30;99.90
13944;DHT22;7044;53.286;8.534;2023-12-04T03:44:45;0.20;99.90
13944;DHT22;7044;53.286;8.534;2023-12-04T03:47:12;0.20;99.90
13944;DHT22;7044;53.286;8.534;2023-12-04T03:49:40;0.30;99.90
13944;DHT22;7044;53.286;8.534;2023-12-04T03:52:07;0.30;99.90
13944;DHT22;7044;53.286;8.534;2023-12-04T03:54:34;0.30;99.90
13944;DHT22;7044;53.286;8.534;2023-12-04T03:57:01;0.20;99.90
13944;DHT22;7044;53.286;8.534;2023-12-04T03:59:28;0.10;99.90
13944;DHT22;7044;53.286;8.534;2023-12-04T04:01:54;0.20;99.90
13944;DHT22;7044;53.286;8.534;2023-12-04T04:04:21;0.20;99.90
13944;DHT22;7044;53.286;8.534;2023-12-04T04:06:50;0.20;99.90
13944;DHT22;7044;53.286;8.534;2023-12-04T04:09:16;0.30;99.90
13944;DHT22;7044;53.286;8.534;2023-12-04T04:11:45;1.30;99.90
13944;DHT22;7044;53.286;8.534;2023-12-04T04:14:12;0.20;99.90
13944;DHT22;7044;53.286;8.534;2023-12-04T04:16:40;0.30;99.90
13944;DHT22;7044;53.286;8.534;2023-12-04T04:19:07;0.30;99.90
13944;DHT22;7044;53.286;8.534;2023-12-04T04:21:33;0.30;99.90
13944;DHT22;7044;53.286;8.534;2023-12-04T04:24:02;0.20;99.90
13944;DHT22;7044;53.286;8.534;2023-12-04T04:26:29;0.30;99.90
13944;DHT22;7044;53.286;8.534;2023-12-04T04:28:56;0.20;99.90
13944;DHT22;7044;53.286;8.534;2023-12-04T04:31:23;0.20;99.90
13944;DHT22;7044;53.286;8.534;2023-12-04T04:33:49;0.20;99.90
13944;DHT22;7044;53.286;8.534;2023-12-04T04:36:16;0.20;99.90
13944;DHT22;7044;53.286;8.534;2023-12-04T04:38:43;0.10;99.90
13944;DHT22;7044;53.286;8.534;2023-12-04T04:41:14;0.20;99.90
13944;DHT22;7044;53.286;8.534;2023-12-04T04:43:41;0.20;99.90
13944;DHT22;7044;53.286;8.534;2023-12-04T04:46:08;0.10;99.90
13944;DHT22;7044;53.286;8.534;2023-12-04T04:48:35;0.20;99.90
13944;DHT22;7044;53.286;8.534;2023-12-04T04:51:02;0.20;99.90
13944;DHT22;7044;53.286;8.534;2023-12-04T04:53:29;0.00;99.90
13944;DHT22;7044;53.286;8.534;2023-12-04T04:55:56;0.20;99.90
13944;DHT22;7044;53.286;8.534;2023-12-04T04:58:24;0.20;99.90
13944;DHT22;7044;53.286;8.534;2023-12-04T05:00:51;0.20;99.90
13944;DHT22;7044;53.286;8.534;2023-12-04T05:05:45;0.20;99.90
13944;DHT22;7044;53.286;8.534;2023-12-04T05:08:12;0.20;99.90
13944;DHT22;7044;53.286;8.534;2023-12-04T05:10:39;0.20;99.90
13944;DHT22;7044;53.286;8.534;2023-12-04T05:13:06;0.20;99.90
13944;DHT22;7044;53.286;8.534;2023-12-04T05:15:34;0.20;99.90
13944;DHT22;7044;53.286;8.534;2023-12-04T05:18:01;0.60;99.90
13944;DHT22;7044;53.286;8.534;2023-12-04T05:20:28;0.10;99.90
13944;DHT22;7044;53.286;8.534;2023-12-04T05:22:56;0.10;99.90
13944;DHT22;7044;53.286;8.534;2023-12-04T05:25:23;0.20;99.90
13944;DHT22;7044;53.286;8.534;2023-12-04T05:27:50;0.20;99.90
13944;DHT22;7044;53.286;8.534;2023-12-04T05:30:17;0.30;99.90
13944;DHT22;7044;53.286;8.534;2023-12-04T05:32:45;0.30;99.90
13944;DHT22;7044;53.286;8.534;2023-12-04T05:35:12;0.30;99.90
13944;DHT22;7044;53.286;8.534;2023-12-04T05:37:38;0.40;99.90
13944;DHT22;7044;53.286;8.534;2023-12-04T05:40:07;0.40;99.90
13944;DHT22;7044;53.286;8.534;2023-12-04T05:42:34;0.30;99.90
13944;DHT22;7044;53.286;8.534;2023-12-04T05:45:02;0.30;99.90
13944;DHT22;7044;53.286;8.534;2023-12-04T05:47:29;0.30;99.90
13944;DHT22;7044;53.286;8.534;2023-12-04T05:49:57;0.30;99.90
13944;DHT22;7044;53.286;8.534;2023-12-04T05:52:24;0.20;99.90
13944;DHT22;7044;53.286;8.534;2023-12-04T05:54:51;0.20;99.90
13944;DHT22;7044;53.286;8.534;2023-12-04T05:57:18;0.40;99.90
13944;DHT22;7044;53.286;8.534;2023-12-04T05:59:45;0.30;99.90
13944;DHT22;7044;53.286;8.534;2023-12-04T06:02:11;0.30;99.90
13944;DHT22;7044;53.286;8.534;2023-12-04T06:04:40;0.50;99.90
13944;DHT22;7044;53.286;8.534;2023-12-04T06:07:09;0.50;99.90
13944;DHT22;7044;53.286;8.534;2023-12-04T06:09:36;0.50;99.90
13944;DHT22;7044;53.286;8.534;2023-12-04T06:12:03;0.70;99.90
13944;DHT22;7044;53.286;8.534;2023-12-04T06:14:33;0.50;99.90
13944;DHT22;7044;53.286;8.534;2023-12-04T06:17:00;0.50;99.90
13944;DHT22;7044;53.286;8.534;2023-12-04T06:19:28;0.50;99.90
13944;DHT22;7044;53.286;8.534;2023-12-04T06:21:55;0.40;99.90
13944;DHT22;7044;53.286;8.534;2023-12-04T06:24:23;0.40;99.90
13944;DHT22;7044;53.286;8.534;2023-12-04T06:26:51;0.50;99.90
13944;DHT22;7044;53.286;8.534;2023-12-04T06:29:19;0.40;99.90
13944;DHT22;7044;53.286;8.534;2023-12-04T06:31:46;0.30;99.90
13944;DHT22;7044;53.286;8.534;2023-12-04T06:34:14;0.50;99.90
13944;DHT22;7044;53.286;8.534;2023-12-04T06:36:41;0.80;99.90
13944;DHT22;7044;53.286;8.534;2023-12-04T06:39:10;1.40;99.90
13944;DHT22;7044;53.286;8.534;2023-12-04T06:41:40;0.40;99.90
13944;DHT22;7044;53.286;8.534;2023-12-04T06:44:08;0.50;99.90
13944;DHT22;7044;53.286;8.534;2023-12-04T06:46:37;0.40;99.90
13944;DHT22;7044;53.286;8.534;2023-12-04T06:49:05;0.50;99.90
13944;DHT22;7044;53.286;8.534;2023-12-04T06:51:32;0.50;99.90
13944;DHT22;7044;53.286;8.534;2023-12-04T06:53:59;0.40;99.90
13944;DHT22;7044;53.286;8.534;2023-12-04T06:56:26;0.50;99.90
13944;DHT22;7044;53.286;8.534;2023-12-04T06:58:54;0.40;99.90
13944;DHT22;7044;53.286;8.534;2023-12-04T07:01:21;0.50;99.90
13944;DHT22;7044;53.286;8.534;2023-12-04T07:03:48;0.50;99.90
13944;DHT22;7044;53.286;8.534;2023-12-04T07:06:15;0.60;99.90
13944;DHT22;7044;53.286;8.534;2023-12-04T07:08:43;0.00;99.90
13944;DHT22;7044;53.286;8.534;2023-12-04T07:11:10;0.40;99.90
13944;DHT22;7044;53.286;8.534;2023-12-04T07:13:40;0.00;99.90
13944;DHT22;7044;53.286;8.534;2023-12-04T07:16:09;0.50;99.90
13944;DHT22;7044;53.286;8.534;2023-12-04T07:18:36;0.50;99.90
13944;DHT22;7044;53.286;8.534;2023-12-04T07:21:04;-0.30;99.90
13944;DHT22;7044;53.286;8.534;2023-12-04T07:23:30;0.50;99.90
13944;DHT22;7044;53.286;8.534;2023-12-04T07:25:57;0.50;99.90
13944;DHT22;7044;53.286;8.534;2023-12-04T07:28:24;0.60;99.90
13944;DHT22;7044;53.286;8.534;2023-12-04T07:30:51;0.50;99.90
13944;DHT22;7044;53.286;8.534;2023-12-04T07:33:19;0.60;99.90
13944;DHT22;7044;53.286;8.534;2023-12-04T07:35:46;0.50;99.90
13944;DHT22;7044;53.286;8.534;2023-12-04T07:38:13;0.50;99.90
13944;DHT22;7044;53.286;8.534;2023-12-04T07:40:40;0.60;99.90
13944;DHT22;7044;53.286;8.534;2023-12-04T07:43:07;0.50;99.90
13944;DHT22;7044;53.286;8.534;2023-12-04T07:45:34;0.50;99.90
13944;DHT22;7044;53.286;8.534;2023-12-04T07:48:02;0.50;99.90
13944;DHT22;7044;53.286;8.534;2023-12-04T07:50:31;0.50;99.90
13944;DHT22;7044;53.286;8.534;2023-12-04T07:52:57;0.50;99.90
13944;DHT22;7044;53.286;8.534;2023-12-04T07:55:24;0.50;99.90
13944;DHT22;7044;53.286;8.534;2023-12-04T07:57:52;0.60;99.90
13944;DHT22;7044;53.286;8.534;2023-12-04T08:00:19;1.20;99.90
13944;DHT22;7044;53.286;8.534;2023-12-04T08:02:45;0.60;99.90
13944;DHT22;7044;53.286;8.534;2023-12-04T08:05:12;0.60;99.90
13944;DHT22;7044;53.286;8.534;2023-12-04T08:07:40;0.60;99.90
13944;DHT22;7044;53.286;8.534;2023-12-04T08:10:08;0.60;99.90
13944;DHT22;7044;53.286;8.534;2023-12-04T08:12:35;0.60;99.90
13944;DHT22;7044;53.286;8.534;2023-12-04T08:15:02;0.60;99.90
13944;DHT22;7044;53.286;8.534;2023-12-04T08:17:29;0.60;99.90
13944;DHT22;7044;53.286;8.534;2023-12-04T08:19:56;0.70;99.90
13944;DHT22;7044;53.286;8.534;2023-12-04T08:22:23;0.60;99.90
13944;DHT22;7044;53.286;8.534;2023-12-04T08:24:52;0.70;99.90
13944;DHT22;7044;53.286;8.534;2023-12-04T08:27:19;0.60;99.90
13944;DHT22;7044;53.286;8.534;2023-12-04T08:29:45;0.90;99.90
13944;DHT22;7044;53.286;8.534;2023-12-04T08:32:12;0.60;99.90
13944;DHT22;7044;53.286;8.534;2023-12-04T08:34:39;0.60;99.90
13944;DHT22;7044;53.286;8.534;2023-12-04T08:37:06;0.20;99.90
13944;DHT22;7044;53.286;8.534;2023-12-04T08:39:33;0.70;99.90
13944;DHT22;7044;53.286;8.534;2023-12-04T08:42:01;0.70;99.90
13944;DHT22;7044;53.286;8.534;2023-12-04T08:44:29;0.70;99.90
13944;DHT22;7044;53.286;8.534;2023-12-04T08:46:56;0.70;99.90
13944;DHT22;7044;53.286;8.534;2023-12-04T08:49:23;1.00;99.90
13944;DHT22;7044;53.286;8.534;2023-12-04T08:51:51;0.70;99.90
13944;DHT22;7044;53.286;8.534;2023-12-04T08:54:18;0.70;99.90
13944;DHT22;7044;53.286;8.534;2023-12-04T08:56:45;0.70;99.90
13944;DHT22;7044;53.286;8.534;2023-12-04T08:59:13;0.70;99.90
13944;DHT22;7044;53.286;8.534;2023-12-04T09:01:40;0.70;99.90
13944;DHT22;7044;53.286;8.534;2023-12-04T09:04:08;1.50;99.90
13944;DHT22;7044;53.286;8.534;2023-12-04T09:06:35;0.80;99.90
13944;DHT22;7044;53.286;8.534;2023-12-04T09:09:02;2.20;99.90
13944;DHT22;7044;53.286;8.534;2023-12-04T09:11:29;1.30;99.90
13944;DHT22;7044;53.286;8.534;2023-12-04T09:13:55;0.80;99.90
13944;DHT22;7044;53.286;8.534;2023-12-04T09:16:24;0.70;99.90
13944;DHT22;7044;53.286;8.534;2023-12-04T09:18:51;1.10;99.90
13944;DHT22;7044;53.286;8.534;2023-12-04T09:21:19;0.80;99.90
13944;DHT22;7044;53.286;8.534;2023-12-04T09:23:45;0.80;99.90
13944;DHT22;7044;53.286;8.534;2023-12-04T09:26:15;-0.20;99.90
13944;DHT22;7044;53.286;8.534;2023-12-04T09:28:42;0.80;99.90
13944;DHT22;7044;53.286;8.534;2023-12-04T09:31:09;0.80;99.90
13944;DHT22;7044;53.286;8.534;2023-12-04T09:33:37;0.80;99.90
13944;DHT22;7044;53.286;8.534;2023-12-04T09:36:05;0.80;99.90
13944;DHT22;7044;53.286;8.534;2023-12-04T09:38:32;0.80;99.90
13944;DHT22;7044;53.286;8.534;2023-12-04T09:40:59;0.90;99.90
13944;DHT22;7044;53.286;8.534;2023-12-04T09:43:28;1.10;99.90
13944;DHT22;7044;53.286;8.534;2023-12-04T09:45:57;0.90;99.90
13944;DHT22;7044;53.286;8.534;2023-12-04T09:48:26;0.90;99.90
13944;DHT22;7044;53.286;8.534;2023-12-04T09:50:54;0.90;99.90
13944;DHT22;7044;53.286;8.534;2023-12-04T09:53:21;0.80;99.90
13944;DHT22;7044;53.286;8.534;2023-12-04T09:55:49;0.90;99.90
13944;DHT22;7044;53.286;8.534;2023-12-04T09:58:19;0.90;99.90
13944;DHT22;7044;53.286;8.534;2023-12-04T10:00:46;0.90;99.90
13944;DHT22;7044;53.286;8.534;2023-12-04T10:03:13;0.90;99.90
13944;DHT22;7044;53.286;8.534;2023-12-04T10:05:44;0.90;99.90
13944;DHT22;7044;53.286;8.534;2023-12-04T10:08:12;0.10;99.90
13944;DHT22;7044;53.286;8.534;2023-12-04T10:10:39;1.00;99.90
13944;DHT22;7044;53.286;8.534;2023-12-04T10:13:06;1.00;99.90
13944;DHT22;7044;53.286;8.534;2023-12-04T10:15:33;1.00;99.90
13944;DHT22;7044;53.286;8.534;2023-12-04T10:18:00;0.90;99.90
13944;DHT22;7044;53.286;8.534;2023-12-04T10:20:27;1.00;99.90
13944;DHT22;7044;53.286;8.534;2023-12-04T10:22:55;1.00;99.90
13944;DHT22;7044;53.286;8.534;2023-12-04T10:25:25;1.00;99.90
13944;DHT22;7044;53.286;8.534;2023-12-04T10:27:53;1.00;99.90
13944;DHT22;7044;53.286;8.534;2023-12-04T10:30:25;1.00;99.90
13944;DHT22;7044;53.286;8.534;2023-12-04T10:32:55;1.00;99.90
13944;DHT22;7044;53.286;8.534;2023-12-04T10:35:21;1.00;99.90
13944;DHT22;7044;53.286;8.534;2023-12-04T10:37:51;1.00;99.90
13944;DHT22;7044;53.286;8.534;2023-12-04T10:40:24;1.00;99.90
13944;DHT22;7044;53.286;8.534;2023-12-04T10:42:52;1.10;99.90
13944;DHT22;7044;53.286;8.534;2023-12-04T10:45:36;1.10;99.90
13944;DHT22;7044;53.286;8.534;2023-12-04T10:48:03;1.10;99.90
13944;DHT22;7044;53.286;8.534;2023-12-04T10:50:32;1.10;99.90
13944;DHT22;7044;53.286;8.534;2023-12-04T10:53:00;1.10;99.90
13944;DHT22;7044;53.286;8.534;2023-12-04T10:55:29;1.10;99.90
13944;DHT22;7044;53.286;8.534;2023-12-04T10:57:56;1.10;99.90
13944;DHT22;7044;53.286;8.534;2023-12-04T11:00:24;0.80;99.90
13944;DHT22;7044;53.286;8.534;2023-12-04T11:02:52;1.10;99.90
13944;DHT22;7044;53.286;8.534;2023-12-04T11:05:23;1.10;99.90
13944;DHT22;7044;53.286;8.534;2023-12-04T11:07:53;1.50;99.90
13944;DHT22;7044;53.286;8.534;2023-12-04T11:10:22;1.20;99.90
13944;DHT22;7044;53.286;8.534;2023-12-04T11:12:56;1.10;99.90
13944;DHT22;7044;53.286;8.534;2023-12-04T11:15:24;1.20;99.90
13944;DHT22;7044;53.286;8.534;2023-12-04T11:17:57;1.20;99.90
13944;DHT22;7044;53.286;8.534;2023-12-04T11:20:27;0.80;99.90
13944;DHT22;7044;53.286;8.534;2023-12-04T11:22:56;1.10;99.90
13944;DHT22;7044;53.286;8.534;2023-12-04T11:25:25;1.20;99.90
13944;DHT22;7044;53.286;8.534;2023-12-04T11:27:54;1.20;99.90
13944;DHT22;7044;53.286;8.534;2023-12-04T11:30:22;1.20;99.90
13944;DHT22;7044;53.286;8.534;2023-12-04T11:32:49;1.20;99.90
13944;DHT22;7044;53.286;8.534;2023-12-04T11:35:17;1.30;99.90
13944;DHT22;7044;53.286;8.534;2023-12-04T11:37:46;1.30;99.90
13944;DHT22;7044;53.286;8.534;2023-12-04T11:40:15;1.30;99.90
13944;DHT22;7044;53.286;8.534;2023-12-04T11:42:42;1.20;99.90
13944;DHT22;7044;53.286;8.534;2023-12-04T11:45:18;1.30;99.90
13944;DHT22;7044;53.286;8.534;2023-12-04T11:47:49;1.30;99.90
13944;DHT22;7044;53.286;8.534;2023-12-04T11:50:18;1.30;99.90
13944;DHT22;7044;53.286;8.534;2023-12-04T11:52:46;1.40;99.90
13944;DHT22;7044;53.286;8.534;2023-12-04T11:55:16;1.30;99.90
13944;DHT22;7044;53.286;8.534;2023-12-04T11:57:43;1.30;99.90
13944;DHT22;7044;53.286;8.534;2023-12-04T12:00:20;1.40;99.90
13944;DHT22;7044;53.286;8.534;2023-12-04T12:03:01;1.40;99.90
13944;DHT22;7044;53.286;8.534;2023-12-04T12:05:32;1.40;99.90
13944;DHT22;7044;53.286;8.534;2023-12-04T12:08:01;1.40;99.90
13944;DHT22;7044;53.286;8.534;2023-12-04T12:10:29;1.40;99.90
13944;DHT22;7044;53.286;8.534;2023-12-04T12:12:56;2.80;99.90
13944;DHT22;7044;53.286;8.534;2023-12-04T12:15:25;1.40;99.90
13944;DHT22;7044;53.286;8.534;2023-12-04T12:17:52;1.40;99.90
13944;DHT22;7044;53.286;8.534;2023-12-04T12:20:20;1.70;99.90
13944;DHT22;7044;53.286;8.534;2023-12-04T12:22:48;2.50;99.90
13944;DHT22;7044;53.286;8.534;2023-12-04T12:25:16;1.40;99.90
13944;DHT22;7044;53.286;8.534;2023-12-04T12:27:43;1.50;99.90
13944;DHT22;7044;53.286;8.534;2023-12-04T12:30:11;1.40;99.90
13944;DHT22;7044;53.286;8.534;2023-12-04T12:32:40;1.50;99.90
13944;DHT22;7044;53.286;8.534;2023-12-04T12:35:07;1.50;99.90
13944;DHT22;7044;53.286;8.534;2023-12-04T12:37:34;1.50;99.90
13944;DHT22;7044;53.286;8.534;2023-12-04T12:40:03;1.50;99.90
13944;DHT22;7044;53.286;8.534;2023-12-04T12:42:30;1.50;99.90
13944;DHT22;7044;53.286;8.534;2023-12-04T12:45:01;1.50;99.90
13944;DHT22;7044;53.286;8.534;2023-12-04T12:47:29;1.70;99.90
13944;DHT22;7044;53.286;8.534;2023-12-04T12:49:57;1.40;99.90
13944;DHT22;7044;53.286;8.534;2023-12-04T12:52:27;1.40;99.90
13944;DHT22;7044;53.286;8.534;2023-12-04T12:57:21;1.40;99.90
13944;DHT22;7044;53.286;8.534;2023-12-04T12:59:48;1.50;99.90
13944;DHT22;7044;53.286;8.534;2023-12-04T13:02:15;1.50;99.90
13944;DHT22;7044;53.286;8.534;2023-12-04T13:04:43;1.30;99.90
13944;DHT22;7044;53.286;8.534;2023-12-04T13:07:12;1.50;99.90
13944;DHT22;7044;53.286;8.534;2023-12-04T13:09:39;1.50;99.90
13944;DHT22;7044;53.286;8.534;2023-12-04T13:12:07;1.40;99.90
13944;DHT22;7044;53.286;8.534;2023-12-04T13:14:36;1.50;99.90
13944;DHT22;7044;53.286;8.534;2023-12-04T13:17:03;1.40;99.90
13944;DHT22;7044;53.286;8.534;2023-12-04T13:19:32;1.50;99.90
13944;DHT22;7044;53.286;8.534;2023-12-04T13:22:00;0.50;99.90
13944;DHT22;7044;53.286;8.534;2023-12-04T13:24:28;1.50;99.90
13944;DHT22;7044;53.286;8.534;2023-12-04T13:26:55;1.50;99.90
13944;DHT22;7044;53.286;8.534;2023-12-04T13:29:23;1.50;99.90
13944;DHT22;7044;53.286;8.534;2023-12-04T13:31:49;2.30;99.90
13944;DHT22;7044;53.286;8.534;2023-12-04T13:34:17;1.50;99.90
13944;DHT22;7044;53.286;8.534;2023-12-04T13:36:44;1.40;99.90
13944;DHT22;7044;53.286;8.534;2023-12-04T13:39:11;1.40;99.90
13944;DHT22;7044;53.286;8.534;2023-12-04T13:41:46;1.40;99.90
13944;DHT22;7044;53.286;8.534;2023-12-04T13:44:30;2.20;99.90
13944;DHT22;7044;53.286;8.534;2023-12-04T13:46:58;1.40;99.90
13944;DHT22;7044;53.286;8.534;2023-12-04T13:49:25;1.40;99.90
13944;DHT22;7044;53.286;8.534;2023-12-04T13:51:52;1.40;99.90
13944;DHT22;7044;53.286;8.534;2023-12-04T13:54:20;1.40;99.90
13944;DHT22;7044;53.286;8.534;2023-12-04T13:56:54;1.50;99.90
13944;DHT22;7044;53.286;8.534;2023-12-04T13:59:22;1.40;99.90
13944;DHT22;7044;53.286;8.534;2023-12-04T14:01:50;1.50;99.90
13944;DHT22;7044;53.286;8.534;2023-12-04T14:04:20;1.50;99.90
13944;DHT22;7044;53.286;8.534;2023-12-04T14:06:49;1.40;99.90
13944;DHT22;7044;53.286;8.534;2023-12-04T14:09:16;1.40;99.90
13944;DHT22;7044;53.286;8.534;2023-12-04T14:11:43;1.50;99.90
13944;DHT22;7044;53.286;8.534;2023-12-04T14:14:12;1.50;99.90
13944;DHT22;7044;53.286;8.534;2023-12-04T14:16:40;1.30;99.90
13944;DHT22;7044;53.286;8.534;2023-12-04T14:19:08;1.40;99.90
13944;DHT22;7044;53.286;8.534;2023-12-04T14:21:35;1.50;99.90
13944;DHT22;7044;53.286;8.534;2023-12-04T14:24:02;1.70;99.90
13944;DHT22;7044;53.286;8.534;2023-12-04T14:26:29;1.50;99.90
13944;DHT22;7044;53.286;8.534;2023-12-04T14:28:56;1.20;99.90
13944;DHT22;7044;53.286;8.534;2023-12-04T14:31:27;1.50;99.90
13944;DHT22;7044;53.286;8.534;2023-12-04T14:36:22;1.50;99.90
13944;DHT22;7044;53.286;8.534;2023-12-04T14:38:49;1.40;99.90
13944;DHT22;7044;53.286;8.534;2023-12-04T14:41:16;1.50;99.90
13944;DHT22;7044;53.286;8.534;2023-12-04T14:43:43;1.40;99.90
13944;DHT22;7044;53.286;8.534;2023-12-04T14:46:10;1.40;99.90
13944;DHT22;7044;53.286;8.534;2023-12-04T14:48:39;1.60;99.90
13944;DHT22;7044;53.286;8.534;2023-12-04T14:51:07;2.30;99.90
13944;DHT22;7044;53.286;8.534;2023-12-04T14:53:35;1.40;99.90
13944;DHT22;7044;53.286;8.534;2023-12-04T14:56:11;1.40;99.90
13944;DHT22;7044;53.286;8.534;2023-12-04T14:58:55;1.40;99.90
13944;DHT22;7044;53.286;8.534;2023-12-04T15:01:42;1.30;99.90
13944;DHT22;7044;53.286;8.534;2023-12-04T15:04:36;1.30;99.90
13944;DHT22;7044;53.286;8.534;2023-12-04T15:07:19;1.30;99.90
13944;DHT22;7044;53.286;8.534;2023-12-04T15:10:15;1.30;99.90
13944;DHT22;7044;53.286;8.534;2023-12-04T15:13:08;1.30;99.90
13944;DHT22;7044;53.286;8.534;2023-12-04T15:16:06;1.30;99.90
13944;DHT22;7044;53.286;8.534;2023-12-04T15:18:59;1.30;99.90
13944;DHT22;7044;53.286;8.534;2023-12-04T15:21:55;1.30;99.90
13944;DHT22;7044;53.286;8.534;2023-12-04T15:24:22;1.30;99.90
13944;DHT22;7044;53.286;8.534;2023-12-04T15:26:48;1.30;99.90
13944;DHT22;7044;53.286;8.534;2023-12-04T15:29:15;1.70;99.90
13944;DHT22;7044;53.286;8.534;2023-12-04T15:31:44;1.30;99.90
13944;DHT22;7044;53.286;8.534;2023-12-04T15:34:11;1.40;99.90
13944;DHT22;7044;53.286;8.534;2023-12-04T15:36:37;4.10;99.90
13944;DHT22;7044;53.286;8.534;2023-12-04T15:39:05;1.00;99.90
13944;DHT22;7044;53.286;8.534;2023-12-04T15:41:32;1.40;99.90
13944;DHT22;7044;53.286;8.534;2023-12-04T15:43:58;1.40;99.90
13944;DHT22;7044;53.286;8.534;2023-12-04T15:46:24;1.30;99.90
13944;DHT22;7044;53.286;8.534;2023-12-04T15:48:52;1.30;99.90
13944;DHT22;7044;53.286;8.534;2023-12-04T15:51:19;1.30;99.90
13944;DHT22;7044;53.286;8.534;2023-12-04T15:53:45;1.30;99.90
13944;DHT22;7044;53.286;8.534;2023-12-04T15:56:13;0.70;99.90
13944;DHT22;7044;53.286;8.534;2023-12-04T15:58:39;1.20;99.90
13944;DHT22;7044;53.286;8.534;2023-12-04T16:01:06;1.60;99.90
13944;DHT22;7044;53.286;8.534;2023-12-04T16:06:01;1.20;99.90
13944;DHT22;7044;53.286;8.534;2023-12-04T16:08:28;1.30;99.90
13944;DHT22;7044;53.286;8.534;2023-12-04T16:10:55;0.90;99.90
13944;DHT22;7044;53.286;8.534;2023-12-04T16:13:23;1.30;99.90
13944;DHT22;7044;53.286;8.534;2023-12-04T16:15:51;1.30;99.90
13944;DHT22;7044;53.286;8.534;2023-12-04T16:18:18;1.40;99.90
13944;DHT22;7044;53.286;8.534;2023-12-04T16:20:44;1.30;99.90
13944;DHT22;7044;53.286;8.534;2023-12-04T16:23:13;1.60;99.90
13944;DHT22;7044;53.286;8.534;2023-12-04T16:25:40;1.20;99.90
13944;DHT22;7044;53.286;8.534;2023-12-04T16:28:07;1.30;99.90
13944;DHT22;7044;53.286;8.534;2023-12-04T16:30:37;1.30;99.90